OOCL Atlanta — VRAR6 — position and weather

sailwx.info

Track history (hours):
 
Tides and Currents Weather Stations Pressure Air Temp Water Temp Dewpoint Dewpoint Depression Visibility Wind Speed Wind Dir Waves Ship Positions

OOCL Atlanta

Last reported at 2015-Jun-30 16:31 UTC. Time now 2015-Jul-04 01:42 UTC.
Position N 01°14' E 104°06'.

Length 323 m; beam 42.8 m; draft 14.5 m.

Type: Cargo ship. MMSI: 477920300.

Date/timePositionNaut miles runAvg speedWind from/ knotsBaromVisibWave heightAir tempDewpointWater temp
2015-Jun-30 16:31N 01°14' E 104°06'1414.1
2015-Jun-30 15:34N 01°14' E 103°52'2 1.9
2015-Jun-30 14:33N 01°16' E 103°51'0 0.0
2015-Jun-30 13:33N 01°16' E 103°51'0 0.1
2015-Jun-30 12:33N 01°16' E 103°51'0 0.0
2015-Jun-30 11:30N 01°16' E 103°51'0 0.0
2015-Jun-30 10:24N 01°16' E 103°51'0 0.1
2015-Jun-30 09:30N 01°16' E 103°51'0 0.1
2015-Jun-30 08:24N 01°16' E 103°51'0 0.0
2015-Jun-30 07:18N 01°16' E 103°51'0 0.0
2015-Jun-30 06:33N 01°16' E 103°51'0 0.0
2015-Jun-30 05:30N 01°16' E 103°51'0 0.1
2015-Jun-30 04:24N 01°16' E 103°51'0 0.0
2015-Jun-30 02:24N 01°16' E 103°51'0 0.0
2015-Jun-30 01:30N 01°16' E 103°51'0 0.0
2015-Jun-30 00:27N 01°16' E 103°51'0 0.0
2015-Jun-29 23:33N 01°16' E 103°51'0 0.0
2015-Jun-29 21:30N 01°16' E 103°51'0 0.0
2015-Jun-29 20:33N 01°16' E 103°51'0 0.0
2015-Jun-29 19:18N 01°16' E 103°51'0 0.0
2015-Jun-29 18:30N 01°16' E 103°51'0 0.0
2015-Jun-29 17:30N 01°16' E 103°51'0 0.0
2015-Jun-29 16:27N 01°16' E 103°51'0 0.0
2015-Jun-29 15:06N 01°16' E 103°51'0 0.0
2015-Jun-29 14:18N 01°16' E 103°51'0 0.0
2015-Jun-29 13:18N 01°16' E 103°51'0 0.0
2015-Jun-29 12:12N 01°16' E 103°51'0 0.0
2015-Jun-29 11:24N 01°16' E 103°51'0 0.0
2015-Jun-29 10:30N 01°16' E 103°51'0 0.0
2015-Jun-29 09:24N 01°16' E 103°51'0 0.0
2015-Jun-29 08:30N 01°16' E 103°51'0 0.0
2015-Jun-29 07:30N 01°16' E 103°51'0 0.0
2015-Jun-29 06:30N 01°16' E 103°51'0 0.0
2015-Jun-29 05:30N 01°16' E 103°51'0 0.1
2015-Jun-29 04:30N 01°16' E 103°51'0 0.0
2015-Jun-29 03:18N 01°16' E 103°51'0 0.0
2015-Jun-29 02:30N 01°16' E 103°51'1 0.7
2015-Jun-29 01:33N 01°15' E 103°51'3 3.1
2015-Jun-29 00:33N 01°14' E 103°54'9 9.0
2015-Jun-28 23:33N 01°16' E 104°03'1613.9
2015-Jun-28 22:23N 01°19' E 104°19'  
2015-Jun-24 23:04N 22°12' E 119°56'917.1
2015-Jun-24 22:33N 22°19' E 120°02'1919.0
2015-Jun-24 21:33N 22°33' E 120°16'3 2.7
2015-Jun-24 20:30N 22°34' E 120°19'0 0.0
2015-Jun-24 19:30N 22°34' E 120°19'0 0.0
2015-Jun-24 16:30N 22°34' E 120°19'0 0.0
2015-Jun-24 14:30N 22°34' E 120°19'0 0.0
2015-Jun-24 13:12N 22°34' E 120°19'0 0.0
2015-Jun-24 11:30N 22°34' E 120°19'0 0.0
2015-Jun-24 10:24N 22°34' E 120°19'0 0.0
2015-Jun-24 09:24N 22°34' E 120°19'0 0.0
2015-Jun-24 07:24N 22°34' E 120°19'0 0.0
2015-Jun-24 04:30N 22°34' E 120°19'0 0.0
2015-Jun-24 03:12N 22°34' E 120°19'1 1.8
2015-Jun-24 02:33N 22°33' E 120°19'6 6.3
2015-Jun-24 01:33N 22°33' E 120°12'1514.6
2015-Jun-24 00:33N 22°45' E 120°05'  
Track history (hours):
 
Tides and Currents Weather Stations Pressure Air Temp Water Temp Dewpoint Dewpoint Depression Visibility Wind Speed Wind Dir Waves Ship Positions

OOCL Atlanta

Last reported at 2015-Jun-30 16:31 UTC. Time now 2015-Jul-04 01:42 UTC.
Position N 01°14' E 104°06'.

Length 323 m; beam 42.8 m; draft 14.5 m.

Type: Cargo ship. MMSI: 477920300.

Date/timePositionNaut miles runAvg speedWind from/ knotsBaromVisibWave heightAir tempDewpointWater temp
2015-Jun-30 16:31N 01°14' E 104°06'1414.1
2015-Jun-30 15:34N 01°14' E 103°52'2 1.9
2015-Jun-30 14:33N 01°16' E 103°51'0 0.0
2015-Jun-30 13:33N 01°16' E 103°51'0 0.1
2015-Jun-30 12:33N 01°16' E 103°51'0 0.0
2015-Jun-30 11:30N 01°16' E 103°51'0 0.0
2015-Jun-30 10:24N 01°16' E 103°51'0 0.1
2015-Jun-30 09:30N 01°16' E 103°51'0 0.1
2015-Jun-30 08:24N 01°16' E 103°51'0 0.0
2015-Jun-30 07:18N 01°16' E 103°51'0 0.0
2015-Jun-30 06:33N 01°16' E 103°51'0 0.0
2015-Jun-30 05:30N 01°16' E 103°51'0 0.1
2015-Jun-30 04:24N 01°16' E 103°51'0 0.0
2015-Jun-30 02:24N 01°16' E 103°51'0 0.0
2015-Jun-30 01:30N 01°16' E 103°51'0 0.0
2015-Jun-30 00:27N 01°16' E 103°51'0 0.0
2015-Jun-29 23:33N 01°16' E 103°51'0 0.0
2015-Jun-29 21:30N 01°16' E 103°51'0 0.0
2015-Jun-29 20:33N 01°16' E 103°51'0 0.0
2015-Jun-29 19:18N 01°16' E 103°51'0 0.0
2015-Jun-29 18:30N 01°16' E 103°51'0 0.0
2015-Jun-29 17:30N 01°16' E 103°51'0 0.0
2015-Jun-29 16:27N 01°16' E 103°51'0 0.0
2015-Jun-29 15:06N 01°16' E 103°51'0 0.0
2015-Jun-29 14:18N 01°16' E 103°51'0 0.0
2015-Jun-29 13:18N 01°16' E 103°51'0 0.0
2015-Jun-29 12:12N 01°16' E 103°51'0 0.0
2015-Jun-29 11:24N 01°16' E 103°51'0 0.0
2015-Jun-29 10:30N 01°16' E 103°51'0 0.0
2015-Jun-29 09:24N 01°16' E 103°51'0 0.0
2015-Jun-29 08:30N 01°16' E 103°51'0 0.0
2015-Jun-29 07:30N 01°16' E 103°51'0 0.0
2015-Jun-29 06:30N 01°16' E 103°51'0 0.0
2015-Jun-29 05:30N 01°16' E 103°51'0 0.1
2015-Jun-29 04:30N 01°16' E 103°51'0 0.0
2015-Jun-29 03:18N 01°16' E 103°51'0 0.0
2015-Jun-29 02:30N 01°16' E 103°51'1 0.7
2015-Jun-29 01:33N 01°15' E 103°51'3 3.1
2015-Jun-29 00:33N 01°14' E 103°54'9 9.0
2015-Jun-28 23:33N 01°16' E 104°03'1613.9
2015-Jun-28 22:23N 01°19' E 104°19'  
2015-Jun-24 23:04N 22°12' E 119°56'917.1
2015-Jun-24 22:33N 22°19' E 120°02'1919.0
2015-Jun-24 21:33N 22°33' E 120°16'3 2.7
2015-Jun-24 20:30N 22°34' E 120°19'0 0.0
2015-Jun-24 19:30N 22°34' E 120°19'0 0.0
2015-Jun-24 16:30N 22°34' E 120°19'0 0.0
2015-Jun-24 14:30N 22°34' E 120°19'0 0.0
2015-Jun-24 13:12N 22°34' E 120°19'0 0.0
2015-Jun-24 11:30N 22°34' E 120°19'0 0.0
2015-Jun-24 10:24N 22°34' E 120°19'0 0.0
2015-Jun-24 09:24N 22°34' E 120°19'0 0.0
2015-Jun-24 07:24N 22°34' E 120°19'0 0.0
2015-Jun-24 04:30N 22°34' E 120°19'0 0.0
2015-Jun-24 03:12N 22°34' E 120°19'1 1.8
2015-Jun-24 02:33N 22°33' E 120°19'6 6.3
2015-Jun-24 01:33N 22°33' E 120°12'1514.6
2015-Jun-24 00:33N 22°45' E 120°05'  

Dump ship's entire track history